• Join FlightAware (Why Join?)
  • Login
  • US Flag 
04:11PM EDT


 

Airport Tracker/Info


-or-


 

Live Flight TrackerFlight Track Log ✈ JZA8145 ✈ 08-May-2013 ✈ CYEG - CYYC

Flight Track Log - Related Links

Times and Time Zones

All times are in EDT time to prevent confusion due to time zone crossing. See the JZA8145 flight status page for this flight to view local times or setup timezone preferences in your user account.

Time Position Orientation Groundspeed Altitude Reporting Facility
EDT Latitude Longitude Course Direction KTS MPH feet Rate Location/Type
03:07PM 53.2500 -113.5667 166° South 120 138 4,000  Level Edmonton Center
03:08PM 53.2333 -113.5333 130° Southeast 130 150 5,800 1,620 Climbing Edmonton Center
03:09PM 53.2000 -113.4833 138° Southeast 150 173 7,300 1,440 Climbing Edmonton Center
03:10PM 53.1667 -113.4500 149° Southeast 140 161 8,700 1,320 Climbing Edmonton Center
03:11PM 53.0512 -113.8115 169° South  Level FlightAware Approximate
03:11PM 53.1167 -113.4667 191° South 170 196 10,000  Level Edmonton Center
03:12PM 52.9824 -113.7886 169° South  Level FlightAware Approximate
03:12PM 53.0667 -113.4500 169° South 180 207 11,600  Level Edmonton Center
03:13PM 52.9137 -113.7655 166° South  Level FlightAware Approximate
03:13PM 53.0167 -113.4667 191° South 190 219 12,900  Level Edmonton Center
03:14PM 52.9667 -113.4500 169° South 190 219 14,300 1,380 Climbing Edmonton Center
03:15PM 52.9167 -113.4833 202° Southwest 190 219 15,700 1,320 Climbing Edmonton Center
03:16PM 52.8500 -113.4667 171° South 190 219 17,000 600 Climbing Edmonton Center
03:17PM 52.8000 -113.4500 169° South 220 253 17,000  Level Edmonton Center
03:18PM 52.7333 -113.4667 189° South 220 253 17,000  Level Edmonton Center
03:19PM 52.6833 -113.4500 169° South 220 253 17,000  Level Edmonton Center
03:20PM 52.6000 -113.4667 187° South 210 242 17,000  Level Edmonton Center
03:21PM 52.5500 -113.4667 180° South 210 242 17,000  Level Edmonton Center
03:22PM 52.4833 -113.4667 180° South 240 276 17,000  Level Edmonton Center
03:23PM 52.4000 -113.4500 173° South 260 299 17,000  Level Edmonton Center
03:24PM 52.3333 -113.4667 189° South 270 311 17,000  Level Edmonton Center
03:25PM 52.2500 -113.4500 173° South 280 322 17,000  Level Edmonton Center
03:26PM 52.1833 -113.4667 189° South 280 322 17,000 -120 Level Edmonton Center
03:27PM 52.1000 -113.4833 187° South 280 322 16,800 -600 Descending Edmonton Center
03:28PM 52.0333 -113.5167 197° South 290 334 15,900 -960 Descending Edmonton Center
03:29PM 51.9333 -113.5500 192° South 300 345 14,900 -960 Descending Edmonton Center
03:30PM 51.8667 -113.6000 205° Southwest 300 345 14,000 -960 Descending Edmonton Center
03:31PM 51.7833 -113.6333 194° South 290 334 13,000 -960 Descending Edmonton Center
03:32PM 51.7167 -113.6500 189° South 290 334 12,100 -900 Descending Edmonton Center
03:33PM 51.6167 -113.6833 192° South 280 322 11,200 -840 Descending Edmonton Center
03:34PM 51.5667 -113.7500 220° Southwest 260 299 10,500 -720 Descending Edmonton Center
03:35PM 51.5167 -113.8167 220° Southwest 270 311 9,800 -780 Descending Edmonton Center
03:36PM 51.4333 -113.8833 207° Southwest 270 311 9,000 -780 Descending Edmonton Center
03:37PM 51.3833 -113.9333 212° Southwest 260 299 8,300 -900 Descending Edmonton Center
03:38PM 51.3500 -114.0333 242° Southwest 200 230 7,200 -900 Descending Edmonton Center
03:39PM 51.3000 -114.0500 192° South 190 219 6,500 -600 Descending Edmonton Center
03:40PM 51.2500 -114.0500 180° South 170 196 6,000 -540 Descending Edmonton Center